createdAt,value
2018-12-07T00:07:17.201Z,-4.41
2018-12-07T00:22:50.690Z,-4.69
2018-12-07T00:38:23.975Z,-4.89
2018-12-07T00:53:57.716Z,-4.92
2018-12-07T01:09:30.784Z,-4.90
2018-12-07T01:25:03.927Z,-4.99
2018-12-07T01:40:37.482Z,-5.10
2018-12-07T01:56:10.716Z,-4.95
2018-12-07T02:11:43.541Z,-5.17
2018-12-07T02:27:16.828Z,-5.29
2018-12-07T02:42:50.000Z,-5.25
2018-12-07T02:58:23.275Z,-5.49
2018-12-07T03:13:56.524Z,-5.64
2018-12-07T03:29:29.738Z,-5.51
2018-12-07T03:45:02.970Z,-5.64
2018-12-07T04:00:35.935Z,-5.55
2018-12-07T04:16:09.357Z,-5.57
2018-12-07T04:31:42.691Z,-5.70
2018-12-07T04:47:16.026Z,-5.59
2018-12-07T05:02:49.411Z,-5.49
2018-12-07T05:18:22.347Z,-5.46
2018-12-07T05:33:55.405Z,-5.41
2018-12-07T05:49:28.018Z,-5.40
2018-12-07T06:05:01.147Z,-5.37
2018-12-07T06:20:34.787Z,-3.61
2018-12-07T06:36:07.764Z,-1.54
2018-12-07T06:51:40.417Z,5.45
2018-12-07T07:07:13.409Z,6.07
2018-12-07T07:22:46.368Z,7.40
2018-12-07T07:38:19.126Z,7.66
2018-12-07T07:53:52.825Z,10.24
2018-12-07T08:09:25.859Z,7.92
2018-12-07T08:24:58.929Z,6.88
2018-12-07T08:40:32.472Z,6.57
2018-12-07T08:56:05.430Z,6.60
2018-12-07T09:11:38.473Z,9.08
2018-12-07T09:27:11.459Z,12.09
2018-12-07T09:42:44.870Z,12.74
2018-12-07T09:58:17.826Z,13.21
2018-12-07T10:13:51.433Z,11.21
2018-12-07T10:29:25.283Z,11.71
2018-12-07T10:44:58.588Z,10.63
2018-12-07T11:00:39.510Z,11.97
2018-12-07T11:16:19.000Z,11.55
2018-12-07T11:48:21.826Z,9.64
2018-12-07T12:03:54.934Z,8.99
2018-12-07T12:19:28.117Z,9.96
2018-12-07T12:35:01.900Z,9.02
2018-12-07T12:50:41.493Z,6.94
2018-12-07T13:06:14.915Z,5.61
2018-12-07T13:21:48.158Z,6.00
2018-12-07T13:37:21.316Z,5.88
2018-12-07T13:52:54.447Z,4.84
2018-12-07T14:08:28.482Z,2.98
2018-12-07T14:24:01.632Z,1.94
2018-12-07T14:39:34.541Z,1.85
2018-12-07T14:55:07.746Z,1.32
2018-12-07T15:10:41.975Z,1.40
2018-12-07T15:26:15.649Z,1.03
2018-12-07T15:41:48.876Z,1.29
2018-12-07T15:57:22.203Z,0.98
2018-12-07T16:12:56.213Z,0.37
2018-12-07T16:28:29.263Z,-0.07
2018-12-07T16:44:02.480Z,-0.30
2018-12-07T16:59:36.009Z,-0.35
2018-12-07T17:15:10.019Z,-0.22
2018-12-07T17:30:43.749Z,0.06
2018-12-07T17:46:18.012Z,-0.01
2018-12-07T18:01:51.085Z,-0.08
2018-12-07T18:17:24.297Z,-0.16
2018-12-07T18:32:58.398Z,-0.04
2018-12-07T18:48:31.437Z,-0.36
2018-12-07T19:04:04.562Z,-0.35
2018-12-07T19:19:38.230Z,-0.30
2018-12-07T19:35:18.561Z,-0.47
2018-12-07T19:50:51.781Z,-0.07
2018-12-07T20:06:24.715Z,-0.02
2018-12-07T20:21:57.951Z,0.33
2018-12-07T20:37:31.357Z,0.09
2018-12-07T20:53:04.981Z,-0.23
2018-12-07T21:08:08.898Z,-0.70
2018-12-07T21:23:12.312Z,-0.74
2018-12-07T21:38:15.023Z,-0.88
2018-12-07T21:53:17.808Z,-1.03
2018-12-07T22:08:21.249Z,-1.36
2018-12-07T22:23:25.607Z,-1.60
2018-12-07T22:38:28.821Z,-1.80
2018-12-07T22:53:32.573Z,-1.66
2018-12-07T23:08:36.183Z,-2.10
2018-12-07T23:23:39.966Z,-2.12
2018-12-07T23:38:43.054Z,-1.65
2018-12-07T23:53:47.564Z,-1.37
